Terminal Aerodrome Forecast
Issued by NWS

Home | Current Version | Previous Version | Text Only | Print | Product List | Glossary On
Versions: 1 2 3 4 5 6 7 8 9 10 11 12 13 14 15
000
FTUS46 KMFR 260200 AAA
TAFLMT
TAF AMD
KLMT 260203Z 2602/2624 27010KT P6SM -SHRA BKN030 OVC050
     FM260600 22010KT P6SM VCSH OVC050
     FM261800 25010KT P6SM BKN070=

USA.gov is the U.S. government's official web portal to all federal, state and local government web resources and services.